sensor_id;sensor_type;location;lat;lon;timestamp;temperature;humidity
16263;DHT22;8239;48.594;8.598;2023-05-07T00:01:40;9.40;99.90
16263;DHT22;8239;48.594;8.598;2023-05-07T00:04:07;9.40;99.90
16263;DHT22;8239;48.594;8.598;2023-05-07T00:06:34;9.40;99.90
16263;DHT22;8239;48.594;8.598;2023-05-07T00:09:01;9.40;99.90
16263;DHT22;8239;48.594;8.598;2023-05-07T00:11:29;9.40;99.90
16263;DHT22;8239;48.594;8.598;2023-05-07T00:13:56;9.40;99.90
16263;DHT22;8239;48.594;8.598;2023-05-07T00:16:23;9.40;99.90
16263;DHT22;8239;48.594;8.598;2023-05-07T00:18:52;9.40;99.90
16263;DHT22;8239;48.594;8.598;2023-05-07T00:21:19;9.40;99.90
16263;DHT22;8239;48.594;8.598;2023-05-07T00:23:47;9.40;99.90
16263;DHT22;8239;48.594;8.598;2023-05-07T00:26:14;9.40;99.90
16263;DHT22;8239;48.594;8.598;2023-05-07T00:28:41;9.40;99.90
16263;DHT22;8239;48.594;8.598;2023-05-07T00:31:08;9.40;99.90
16263;DHT22;8239;48.594;8.598;2023-05-07T00:33:35;9.40;99.90
16263;DHT22;8239;48.594;8.598;2023-05-07T00:36:04;9.30;99.90
16263;DHT22;8239;48.594;8.598;2023-05-07T00:38:31;9.30;99.90
16263;DHT22;8239;48.594;8.598;2023-05-07T00:40:58;9.30;99.90
16263;DHT22;8239;48.594;8.598;2023-05-07T00:43:25;9.30;99.90
16263;DHT22;8239;48.594;8.598;2023-05-07T00:45:53;9.30;99.90
16263;DHT22;8239;48.594;8.598;2023-05-07T00:48:20;9.30;99.90
16263;DHT22;8239;48.594;8.598;2023-05-07T00:50:49;9.30;99.90
16263;DHT22;8239;48.594;8.598;2023-05-07T00:53:18;9.30;99.90
16263;DHT22;8239;48.594;8.598;2023-05-07T00:55:45;9.30;99.90
16263;DHT22;8239;48.594;8.598;2023-05-07T00:58:13;9.30;99.90
16263;DHT22;8239;48.594;8.598;2023-05-07T01:00:40;9.30;99.90
16263;DHT22;8239;48.594;8.598;2023-05-07T01:03:07;9.30;99.90
16263;DHT22;8239;48.594;8.598;2023-05-07T01:05:34;9.30;99.90
16263;DHT22;8239;48.594;8.598;2023-05-07T01:08:02;9.30;99.90
16263;DHT22;8239;48.594;8.598;2023-05-07T01:10:32;9.30;99.90
16263;DHT22;8239;48.594;8.598;2023-05-07T01:12:59;9.20;99.90
16263;DHT22;8239;48.594;8.598;2023-05-07T01:15:27;9.20;99.90
16263;DHT22;8239;48.594;8.598;2023-05-07T01:17:54;9.20;99.90
16263;DHT22;8239;48.594;8.598;2023-05-07T01:20:23;9.10;99.90
16263;DHT22;8239;48.594;8.598;2023-05-07T01:22:52;9.10;99.90
16263;DHT22;8239;48.594;8.598;2023-05-07T01:25:20;9.10;99.90
16263;DHT22;8239;48.594;8.598;2023-05-07T01:27:47;9.10;99.90
16263;DHT22;8239;48.594;8.598;2023-05-07T01:30:14;9.10;99.90
16263;DHT22;8239;48.594;8.598;2023-05-07T01:32:43;9.10;99.90
16263;DHT22;8239;48.594;8.598;2023-05-07T01:35:18;9.10;99.90
16263;DHT22;8239;48.594;8.598;2023-05-07T01:37:46;9.10;99.90
16263;DHT22;8239;48.594;8.598;2023-05-07T01:40:15;9.10;99.90
16263;DHT22;8239;48.594;8.598;2023-05-07T01:42:43;9.10;99.90
16263;DHT22;8239;48.594;8.598;2023-05-07T01:45:10;9.00;99.90
16263;DHT22;8239;48.594;8.598;2023-05-07T01:47:38;9.00;99.90
16263;DHT22;8239;48.594;8.598;2023-05-07T01:50:07;8.90;99.90
16263;DHT22;8239;48.594;8.598;2023-05-07T01:52:36;8.90;99.90
16263;DHT22;8239;48.594;8.598;2023-05-07T01:55:05;8.90;99.90
16263;DHT22;8239;48.594;8.598;2023-05-07T01:57:33;8.90;99.90
16263;DHT22;8239;48.594;8.598;2023-05-07T02:00:01;8.80;99.90
16263;DHT22;8239;48.594;8.598;2023-05-07T02:02:31;8.80;99.90
16263;DHT22;8239;48.594;8.598;2023-05-07T02:04:59;8.80;99.90
16263;DHT22;8239;48.594;8.598;2023-05-07T02:07:26;8.80;99.90
16263;DHT22;8239;48.594;8.598;2023-05-07T02:09:53;8.80;99.90
16263;DHT22;8239;48.594;8.598;2023-05-07T02:12:21;8.80;99.90
16263;DHT22;8239;48.594;8.598;2023-05-07T02:14:49;8.70;99.90
16263;DHT22;8239;48.594;8.598;2023-05-07T02:17:16;8.70;99.90
16263;DHT22;8239;48.594;8.598;2023-05-07T02:19:43;8.60;99.90
16263;DHT22;8239;48.594;8.598;2023-05-07T02:22:10;8.60;99.90
16263;DHT22;8239;48.594;8.598;2023-05-07T02:24:37;8.50;99.90
16263;DHT22;8239;48.594;8.598;2023-05-07T02:27:04;8.50;99.90
16263;DHT22;8239;48.594;8.598;2023-05-07T02:29:31;8.40;99.90
16263;DHT22;8239;48.594;8.598;2023-05-07T02:31:59;8.40;99.90
16263;DHT22;8239;48.594;8.598;2023-05-07T02:34:26;8.30;99.90
16263;DHT22;8239;48.594;8.598;2023-05-07T02:36:53;8.30;99.90
16263;DHT22;8239;48.594;8.598;2023-05-07T02:39:21;8.30;99.90
16263;DHT22;8239;48.594;8.598;2023-05-07T02:41:48;8.30;99.90
16263;DHT22;8239;48.594;8.598;2023-05-07T02:44:15;8.20;99.90
16263;DHT22;8239;48.594;8.598;2023-05-07T02:46:42;8.20;99.90
16263;DHT22;8239;48.594;8.598;2023-05-07T02:49:10;8.20;99.90
16263;DHT22;8239;48.594;8.598;2023-05-07T02:51:37;8.10;99.90
16263;DHT22;8239;48.594;8.598;2023-05-07T02:54:04;8.10;99.90
16263;DHT22;8239;48.594;8.598;2023-05-07T02:56:31;8.00;99.90
16263;DHT22;8239;48.594;8.598;2023-05-07T02:58:58;8.00;99.90
16263;DHT22;8239;48.594;8.598;2023-05-07T03:01:25;8.00;99.90
16263;DHT22;8239;48.594;8.598;2023-05-07T03:03:52;7.90;99.90
16263;DHT22;8239;48.594;8.598;2023-05-07T03:06:20;7.90;99.90
16263;DHT22;8239;48.594;8.598;2023-05-07T03:08:47;7.90;99.90
16263;DHT22;8239;48.594;8.598;2023-05-07T03:11:14;7.90;99.90
16263;DHT22;8239;48.594;8.598;2023-05-07T03:13:41;7.80;99.90
16263;DHT22;8239;48.594;8.598;2023-05-07T03:16:08;7.80;99.90
16263;DHT22;8239;48.594;8.598;2023-05-07T03:18:35;7.80;99.90
16263;DHT22;8239;48.594;8.598;2023-05-07T03:21:02;7.80;99.90
16263;DHT22;8239;48.594;8.598;2023-05-07T03:23:30;7.70;99.90
16263;DHT22;8239;48.594;8.598;2023-05-07T03:25:57;7.70;99.90
16263;DHT22;8239;48.594;8.598;2023-05-07T03:28:24;7.70;99.90
16263;DHT22;8239;48.594;8.598;2023-05-07T03:30:51;7.70;99.90
16263;DHT22;8239;48.594;8.598;2023-05-07T03:33:18;7.70;99.90
16263;DHT22;8239;48.594;8.598;2023-05-07T03:35:45;7.70;99.90
16263;DHT22;8239;48.594;8.598;2023-05-07T03:38:12;7.70;99.90
16263;DHT22;8239;48.594;8.598;2023-05-07T03:40:40;7.70;99.90
16263;DHT22;8239;48.594;8.598;2023-05-07T03:43:07;7.60;99.90
16263;DHT22;8239;48.594;8.598;2023-05-07T03:45:34;7.60;99.90
16263;DHT22;8239;48.594;8.598;2023-05-07T03:48:01;7.60;99.90
16263;DHT22;8239;48.594;8.598;2023-05-07T03:50:28;7.60;99.90
16263;DHT22;8239;48.594;8.598;2023-05-07T03:52:55;7.50;99.90
16263;DHT22;8239;48.594;8.598;2023-05-07T03:55:22;7.50;99.90
16263;DHT22;8239;48.594;8.598;2023-05-07T03:57:51;7.50;99.90
16263;DHT22;8239;48.594;8.598;2023-05-07T04:00:18;7.50;99.90
16263;DHT22;8239;48.594;8.598;2023-05-07T04:02:45;7.50;99.90
16263;DHT22;8239;48.594;8.598;2023-05-07T04:05:13;7.50;99.90
16263;DHT22;8239;48.594;8.598;2023-05-07T04:07:43;7.50;99.90
16263;DHT22;8239;48.594;8.598;2023-05-07T04:10:11;7.40;99.90
16263;DHT22;8239;48.594;8.598;2023-05-07T04:12:39;7.40;99.90
16263;DHT22;8239;48.594;8.598;2023-05-07T04:15:08;7.40;99.90
16263;DHT22;8239;48.594;8.598;2023-05-07T04:17:35;7.50;99.90
16263;DHT22;8239;48.594;8.598;2023-05-07T04:20:02;7.50;99.90
16263;DHT22;8239;48.594;8.598;2023-05-07T04:22:29;7.50;99.90
16263;DHT22;8239;48.594;8.598;2023-05-07T04:24:56;7.60;99.90
16263;DHT22;8239;48.594;8.598;2023-05-07T04:27:23;7.70;99.90
16263;DHT22;8239;48.594;8.598;2023-05-07T04:29:51;7.70;99.90
16263;DHT22;8239;48.594;8.598;2023-05-07T04:32:22;7.70;99.90
16263;DHT22;8239;48.594;8.598;2023-05-07T04:34:50;7.80;99.90
16263;DHT22;8239;48.594;8.598;2023-05-07T04:37:17;7.80;99.90
16263;DHT22;8239;48.594;8.598;2023-05-07T04:39:44;7.90;99.90
16263;DHT22;8239;48.594;8.598;2023-05-07T04:42:14;7.90;99.90
16263;DHT22;8239;48.594;8.598;2023-05-07T04:44:41;8.00;99.90
16263;DHT22;8239;48.594;8.598;2023-05-07T04:47:08;8.10;99.90
16263;DHT22;8239;48.594;8.598;2023-05-07T04:49:37;8.20;99.90
16263;DHT22;8239;48.594;8.598;2023-05-07T04:52:04;8.20;99.90
16263;DHT22;8239;48.594;8.598;2023-05-07T04:54:31;8.30;99.90
16263;DHT22;8239;48.594;8.598;2023-05-07T04:56:58;8.30;99.90
16263;DHT22;8239;48.594;8.598;2023-05-07T04:59:25;8.40;99.90
16263;DHT22;8239;48.594;8.598;2023-05-07T05:01:52;8.50;99.90
16263;DHT22;8239;48.594;8.598;2023-05-07T05:04:19;8.60;99.90
16263;DHT22;8239;48.594;8.598;2023-05-07T05:06:47;8.80;99.90
16263;DHT22;8239;48.594;8.598;2023-05-07T05:09:14;8.90;99.90
16263;DHT22;8239;48.594;8.598;2023-05-07T05:11:42;9.20;99.90
16263;DHT22;8239;48.594;8.598;2023-05-07T05:14:09;9.40;99.90
16263;DHT22;8239;48.594;8.598;2023-05-07T05:16:36;9.70;99.90
16263;DHT22;8239;48.594;8.598;2023-05-07T05:19:03;10.00;99.90
16263;DHT22;8239;48.594;8.598;2023-05-07T05:21:31;10.20;99.90
16263;DHT22;8239;48.594;8.598;2023-05-07T05:24:00;10.30;99.90
16263;DHT22;8239;48.594;8.598;2023-05-07T05:26:27;10.50;99.90
16263;DHT22;8239;48.594;8.598;2023-05-07T05:28:54;10.60;99.90
16263;DHT22;8239;48.594;8.598;2023-05-07T05:31:21;10.80;99.90
16263;DHT22;8239;48.594;8.598;2023-05-07T05:33:48;11.10;99.90
16263;DHT22;8239;48.594;8.598;2023-05-07T05:36:15;11.40;99.90
16263;DHT22;8239;48.594;8.598;2023-05-07T05:38:42;11.70;99.90
16263;DHT22;8239;48.594;8.598;2023-05-07T05:41:10;11.90;99.90
16263;DHT22;8239;48.594;8.598;2023-05-07T05:43:37;12.20;99.90
16263;DHT22;8239;48.594;8.598;2023-05-07T05:46:04;12.50;99.90
16263;DHT22;8239;48.594;8.598;2023-05-07T05:48:31;12.80;99.90
16263;DHT22;8239;48.594;8.598;2023-05-07T05:50:58;12.90;99.90
16263;DHT22;8239;48.594;8.598;2023-05-07T05:53:25;13.00;99.90
16263;DHT22;8239;48.594;8.598;2023-05-07T05:55:52;13.00;99.90
16263;DHT22;8239;48.594;8.598;2023-05-07T05:58:20;13.00;99.90
16263;DHT22;8239;48.594;8.598;2023-05-07T06:00:48;13.20;99.90
16263;DHT22;8239;48.594;8.598;2023-05-07T06:03:17;13.40;99.90
16263;DHT22;8239;48.594;8.598;2023-05-07T06:05:45;13.70;99.90
16263;DHT22;8239;48.594;8.598;2023-05-07T06:08:11;14.00;99.90
16263;DHT22;8239;48.594;8.598;2023-05-07T06:10:39;14.30;99.90
16263;DHT22;8239;48.594;8.598;2023-05-07T06:13:06;14.60;99.90
16263;DHT22;8239;48.594;8.598;2023-05-07T06:15:34;14.90;99.90
16263;DHT22;8239;48.594;8.598;2023-05-07T06:18:01;15.20;99.90
16263;DHT22;8239;48.594;8.598;2023-05-07T06:20:28;15.50;99.90
16263;DHT22;8239;48.594;8.598;2023-05-07T06:22:55;15.70;99.90
16263;DHT22;8239;48.594;8.598;2023-05-07T06:25:22;16.00;99.90
16263;DHT22;8239;48.594;8.598;2023-05-07T06:27:49;16.20;99.90
16263;DHT22;8239;48.594;8.598;2023-05-07T06:30:16;16.50;99.90
16263;DHT22;8239;48.594;8.598;2023-05-07T06:32:44;17.00;99.90
16263;DHT22;8239;48.594;8.598;2023-05-07T06:35:11;17.80;99.90
16263;DHT22;8239;48.594;8.598;2023-05-07T06:37:38;18.60;99.90
16263;DHT22;8239;48.594;8.598;2023-05-07T06:40:09;19.50;99.90
16263;DHT22;8239;48.594;8.598;2023-05-07T06:42:36;20.50;98.80
16263;DHT22;8239;48.594;8.598;2023-05-07T06:45:04;21.60;96.00
16263;DHT22;8239;48.594;8.598;2023-05-07T06:47:31;22.60;92.40
16263;DHT22;8239;48.594;8.598;2023-05-07T06:49:59;23.40;85.50
16263;DHT22;8239;48.594;8.598;2023-05-07T06:52:26;24.10;79.40
16263;DHT22;8239;48.594;8.598;2023-05-07T06:54:53;24.70;73.50
16263;DHT22;8239;48.594;8.598;2023-05-07T06:57:20;24.80;68.20
16263;DHT22;8239;48.594;8.598;2023-05-07T06:59:47;24.50;63.30
16263;DHT22;8239;48.594;8.598;2023-05-07T07:02:14;24.10;62.30
16263;DHT22;8239;48.594;8.598;2023-05-07T07:04:41;23.60;62.60
16263;DHT22;8239;48.594;8.598;2023-05-07T07:07:09;23.40;63.30
16263;DHT22;8239;48.594;8.598;2023-05-07T07:09:36;23.40;64.20
16263;DHT22;8239;48.594;8.598;2023-05-07T07:12:03;23.10;63.30
16263;DHT22;8239;48.594;8.598;2023-05-07T07:14:30;22.70;62.80
16263;DHT22;8239;48.594;8.598;2023-05-07T07:16:57;22.30;63.70
16263;DHT22;8239;48.594;8.598;2023-05-07T07:19:25;21.80;65.70
16263;DHT22;8239;48.594;8.598;2023-05-07T07:21:52;21.30;66.90
16263;DHT22;8239;48.594;8.598;2023-05-07T07:24:20;21.10;68.60
16263;DHT22;8239;48.594;8.598;2023-05-07T07:26:47;21.20;70.70
16263;DHT22;8239;48.594;8.598;2023-05-07T07:29:14;21.70;72.60
16263;DHT22;8239;48.594;8.598;2023-05-07T07:31:41;22.50;70.90
16263;DHT22;8239;48.594;8.598;2023-05-07T07:34:08;23.50;70.40
16263;DHT22;8239;48.594;8.598;2023-05-07T07:36:35;24.70;67.30
16263;DHT22;8239;48.594;8.598;2023-05-07T07:39:02;25.90;64.60
16263;DHT22;8239;48.594;8.598;2023-05-07T07:41:31;27.20;61.80
16263;DHT22;8239;48.594;8.598;2023-05-07T07:43:58;28.30;57.10
16263;DHT22;8239;48.594;8.598;2023-05-07T07:46:25;29.20;54.80
16263;DHT22;8239;48.594;8.598;2023-05-07T07:48:52;29.80;50.60
16263;DHT22;8239;48.594;8.598;2023-05-07T07:51:19;30.30;49.50
16263;DHT22;8239;48.594;8.598;2023-05-07T07:53:46;30.70;48.00
16263;DHT22;8239;48.594;8.598;2023-05-07T07:56:13;31.00;47.20
16263;DHT22;8239;48.594;8.598;2023-05-07T07:58:42;31.30;47.00
16263;DHT22;8239;48.594;8.598;2023-05-07T08:01:09;31.20;45.00
16263;DHT22;8239;48.594;8.598;2023-05-07T08:03:37;31.30;44.90
16263;DHT22;8239;48.594;8.598;2023-05-07T08:06:04;30.50;44.10
16263;DHT22;8239;48.594;8.598;2023-05-07T08:08:31;29.30;45.40
16263;DHT22;8239;48.594;8.598;2023-05-07T08:10:58;28.70;47.60
16263;DHT22;8239;48.594;8.598;2023-05-07T08:13:26;28.70;47.90
16263;DHT22;8239;48.594;8.598;2023-05-07T08:15:54;28.90;48.40
16263;DHT22;8239;48.594;8.598;2023-05-07T08:18:39;29.60;47.30
16263;DHT22;8239;48.594;8.598;2023-05-07T08:21:06;29.50;46.30
16263;DHT22;8239;48.594;8.598;2023-05-07T08:23:33;28.70;46.50
16263;DHT22;8239;48.594;8.598;2023-05-07T08:26:01;28.20;48.60
16263;DHT22;8239;48.594;8.598;2023-05-07T08:28:28;28.40;49.50
16263;DHT22;8239;48.594;8.598;2023-05-07T08:30:56;29.10;48.90
16263;DHT22;8239;48.594;8.598;2023-05-07T08:33:26;29.50;47.40
16263;DHT22;8239;48.594;8.598;2023-05-07T08:35:53;30.30;46.60
16263;DHT22;8239;48.594;8.598;2023-05-07T08:38:20;31.00;46.40
16263;DHT22;8239;48.594;8.598;2023-05-07T08:40:47;31.80;44.50
16263;DHT22;8239;48.594;8.598;2023-05-07T08:43:14;32.30;42.60
16263;DHT22;8239;48.594;8.598;2023-05-07T08:45:41;32.80;43.30
16263;DHT22;8239;48.594;8.598;2023-05-07T08:48:16;33.40;42.80
16263;DHT22;8239;48.594;8.598;2023-05-07T08:50:43;33.80;41.20
16263;DHT22;8239;48.594;8.598;2023-05-07T08:53:10;34.20;40.80
16263;DHT22;8239;48.594;8.598;2023-05-07T08:55:37;34.10;39.40
16263;DHT22;8239;48.594;8.598;2023-05-07T08:58:04;33.90;39.20
16263;DHT22;8239;48.594;8.598;2023-05-07T09:00:32;33.30;40.50
16263;DHT22;8239;48.594;8.598;2023-05-07T09:03:00;33.00;41.30
16263;DHT22;8239;48.594;8.598;2023-05-07T09:05:29;33.20;40.80
16263;DHT22;8239;48.594;8.598;2023-05-07T09:07:59;32.60;40.60
16263;DHT22;8239;48.594;8.598;2023-05-07T09:10:26;32.60;41.90
16263;DHT22;8239;48.594;8.598;2023-05-07T09:12:53;32.90;41.30
16263;DHT22;8239;48.594;8.598;2023-05-07T09:15:20;32.30;40.30
16263;DHT22;8239;48.594;8.598;2023-05-07T09:17:47;31.20;42.40
16263;DHT22;8239;48.594;8.598;2023-05-07T09:20:14;30.50;43.10
16263;DHT22;8239;48.594;8.598;2023-05-07T09:22:44;29.70;44.50
16263;DHT22;8239;48.594;8.598;2023-05-07T09:25:11;28.60;46.30
16263;DHT22;8239;48.594;8.598;2023-05-07T09:27:38;27.60;48.10
16263;DHT22;8239;48.594;8.598;2023-05-07T09:30:06;27.50;50.10
16263;DHT22;8239;48.594;8.598;2023-05-07T09:32:35;28.00;49.50
16263;DHT22;8239;48.594;8.598;2023-05-07T09:35:04;29.00;48.50
16263;DHT22;8239;48.594;8.598;2023-05-07T09:37:31;29.70;47.00
16263;DHT22;8239;48.594;8.598;2023-05-07T09:40:00;30.40;45.30
16263;DHT22;8239;48.594;8.598;2023-05-07T09:42:27;31.10;45.10
16263;DHT22;8239;48.594;8.598;2023-05-07T09:44:54;31.30;44.30
16263;DHT22;8239;48.594;8.598;2023-05-07T09:47:24;31.40;43.80
16263;DHT22;8239;48.594;8.598;2023-05-07T09:49:56;31.70;43.30
16263;DHT22;8239;48.594;8.598;2023-05-07T09:52:24;31.90;43.20
16263;DHT22;8239;48.594;8.598;2023-05-07T09:54:55;32.20;42.80
16263;DHT22;8239;48.594;8.598;2023-05-07T09:57:27;32.60;42.90
16263;DHT22;8239;48.594;8.598;2023-05-07T09:59:56;33.00;41.10
16263;DHT22;8239;48.594;8.598;2023-05-07T10:02:26;32.60;41.20
16263;DHT22;8239;48.594;8.598;2023-05-07T10:04:56;32.60;41.50
16263;DHT22;8239;48.594;8.598;2023-05-07T10:07:26;32.60;41.70
16263;DHT22;8239;48.594;8.598;2023-05-07T10:09:55;32.70;39.50
16263;DHT22;8239;48.594;8.598;2023-05-07T10:12:23;32.50;39.20
16263;DHT22;8239;48.594;8.598;2023-05-07T10:14:53;32.60;39.70
16263;DHT22;8239;48.594;8.598;2023-05-07T10:17:23;32.80;37.40
16263;DHT22;8239;48.594;8.598;2023-05-07T10:19:50;32.70;36.70
16263;DHT22;8239;48.594;8.598;2023-05-07T10:22:20;32.50;37.90
16263;DHT22;8239;48.594;8.598;2023-05-07T10:24:49;31.90;39.30
16263;DHT22;8239;48.594;8.598;2023-05-07T10:27:19;31.20;40.20
16263;DHT22;8239;48.594;8.598;2023-05-07T10:29:56;30.60;41.40
16263;DHT22;8239;48.594;8.598;2023-05-07T10:32:37;30.00;41.90
16263;DHT22;8239;48.594;8.598;2023-05-07T10:35:10;29.50;43.20
16263;DHT22;8239;48.594;8.598;2023-05-07T10:37:38;29.10;43.20
16263;DHT22;8239;48.594;8.598;2023-05-07T10:40:07;28.40;43.50
16263;DHT22;8239;48.594;8.598;2023-05-07T10:42:35;27.60;44.20
16263;DHT22;8239;48.594;8.598;2023-05-07T10:45:15;27.00;44.50
16263;DHT22;8239;48.594;8.598;2023-05-07T10:48:13;26.40;46.10
16263;DHT22;8239;48.594;8.598;2023-05-07T10:50:41;25.80;47.10
16263;DHT22;8239;48.594;8.598;2023-05-07T10:53:24;25.30;50.80
16263;DHT22;8239;48.594;8.598;2023-05-07T10:56:26;24.40;51.70
16263;DHT22;8239;48.594;8.598;2023-05-07T10:58:54;23.30;53.50
16263;DHT22;8239;48.594;8.598;2023-05-07T11:04:22;21.30;59.40
16263;DHT22;8239;48.594;8.598;2023-05-07T11:07:29;20.00;64.70
16263;DHT22;8239;48.594;8.598;2023-05-07T11:10:06;18.60;70.60
16263;DHT22;8239;48.594;8.598;2023-05-07T11:12:53;17.50;74.60
16263;DHT22;8239;48.594;8.598;2023-05-07T11:15:47;16.70;80.10
16263;DHT22;8239;48.594;8.598;2023-05-07T11:18:15;16.10;89.40
16263;DHT22;8239;48.594;8.598;2023-05-07T11:20:57;15.60;94.40
16263;DHT22;8239;48.594;8.598;2023-05-07T11:26:44;15.30;99.90
16263;DHT22;8239;48.594;8.598;2023-05-07T11:29:12;15.50;99.90
16263;DHT22;8239;48.594;8.598;2023-05-07T11:31:39;15.70;99.90
16263;DHT22;8239;48.594;8.598;2023-05-07T11:34:06;15.90;99.90
16263;DHT22;8239;48.594;8.598;2023-05-07T11:36:36;16.10;99.90
16263;DHT22;8239;48.594;8.598;2023-05-07T11:39:26;16.20;99.90
16263;DHT22;8239;48.594;8.598;2023-05-07T11:41:54;16.30;99.90
16263;DHT22;8239;48.594;8.598;2023-05-07T11:44:21;16.40;99.90
16263;DHT22;8239;48.594;8.598;2023-05-07T11:46:48;16.40;99.90
16263;DHT22;8239;48.594;8.598;2023-05-07T11:49:16;16.40;99.90
16263;DHT22;8239;48.594;8.598;2023-05-07T11:51:45;16.40;99.90
16263;DHT22;8239;48.594;8.598;2023-05-07T11:54:15;16.40;99.90
16263;DHT22;8239;48.594;8.598;2023-05-07T11:56:44;16.30;99.90
16263;DHT22;8239;48.594;8.598;2023-05-07T11:59:17;16.20;99.90
16263;DHT22;8239;48.594;8.598;2023-05-07T12:01:46;16.00;99.90
16263;DHT22;8239;48.594;8.598;2023-05-07T12:04:13;15.80;99.90
16263;DHT22;8239;48.594;8.598;2023-05-07T12:06:40;15.60;99.90
16263;DHT22;8239;48.594;8.598;2023-05-07T12:09:08;15.50;99.90
16263;DHT22;8239;48.594;8.598;2023-05-07T12:11:37;15.20;99.90
16263;DHT22;8239;48.594;8.598;2023-05-07T12:14:06;15.00;99.90
16263;DHT22;8239;48.594;8.598;2023-05-07T12:16:33;14.80;99.90
16263;DHT22;8239;48.594;8.598;2023-05-07T12:19:00;14.70;99.90
16263;DHT22;8239;48.594;8.598;2023-05-07T12:21:28;14.70;99.90
16263;DHT22;8239;48.594;8.598;2023-05-07T12:23:55;14.60;99.90
16263;DHT22;8239;48.594;8.598;2023-05-07T12:26:24;14.50;99.90
16263;DHT22;8239;48.594;8.598;2023-05-07T12:28:52;14.40;99.90
16263;DHT22;8239;48.594;8.598;2023-05-07T12:31:19;14.30;99.90
16263;DHT22;8239;48.594;8.598;2023-05-07T12:33:46;14.20;99.90
16263;DHT22;8239;48.594;8.598;2023-05-07T12:36:13;14.10;99.90
16263;DHT22;8239;48.594;8.598;2023-05-07T12:38:40;14.00;99.90
16263;DHT22;8239;48.594;8.598;2023-05-07T12:41:08;14.00;99.90
16263;DHT22;8239;48.594;8.598;2023-05-07T12:43:39;14.00;99.90
16263;DHT22;8239;48.594;8.598;2023-05-07T12:46:07;14.00;99.90
16263;DHT22;8239;48.594;8.598;2023-05-07T12:48:36;13.90;99.90
16263;DHT22;8239;48.594;8.598;2023-05-07T12:51:03;13.90;99.90
16263;DHT22;8239;48.594;8.598;2023-05-07T12:53:31;13.90;99.90
16263;DHT22;8239;48.594;8.598;2023-05-07T12:55:59;13.80;99.90
16263;DHT22;8239;48.594;8.598;2023-05-07T12:58:28;13.80;99.90
16263;DHT22;8239;48.594;8.598;2023-05-07T13:00:59;13.80;99.90
16263;DHT22;8239;48.594;8.598;2023-05-07T13:03:28;13.80;99.90
16263;DHT22;8239;48.594;8.598;2023-05-07T13:05:56;13.80;99.90
16263;DHT22;8239;48.594;8.598;2023-05-07T13:08:29;13.80;99.90
16263;DHT22;8239;48.594;8.598;2023-05-07T13:10:57;13.70;99.90
16263;DHT22;8239;48.594;8.598;2023-05-07T13:13:25;13.80;99.90
16263;DHT22;8239;48.594;8.598;2023-05-07T13:15:52;13.80;99.90
16263;DHT22;8239;48.594;8.598;2023-05-07T13:18:23;13.80;99.90
16263;DHT22;8239;48.594;8.598;2023-05-07T13:20:51;13.80;99.90
16263;DHT22;8239;48.594;8.598;2023-05-07T13:23:18;13.80;99.90
16263;DHT22;8239;48.594;8.598;2023-05-07T13:25:49;13.80;99.90
16263;DHT22;8239;48.594;8.598;2023-05-07T13:28:16;13.80;99.90
16263;DHT22;8239;48.594;8.598;2023-05-07T13:30:43;13.80;99.90
16263;DHT22;8239;48.594;8.598;2023-05-07T13:33:10;13.70;99.90
16263;DHT22;8239;48.594;8.598;2023-05-07T13:35:38;13.70;99.90
16263;DHT22;8239;48.594;8.598;2023-05-07T13:38:05;13.70;99.90
16263;DHT22;8239;48.594;8.598;2023-05-07T13:40:32;13.80;99.90
16263;DHT22;8239;48.594;8.598;2023-05-07T13:43:00;13.80;99.90
16263;DHT22;8239;48.594;8.598;2023-05-07T13:45:27;13.80;99.90
16263;DHT22;8239;48.594;8.598;2023-05-07T13:47:55;13.90;99.90
16263;DHT22;8239;48.594;8.598;2023-05-07T13:50:22;14.00;99.90
16263;DHT22;8239;48.594;8.598;2023-05-07T13:52:51;14.10;99.90
16263;DHT22;8239;48.594;8.598;2023-05-07T13:55:19;14.10;99.90
16263;DHT22;8239;48.594;8.598;2023-05-07T13:57:47;14.30;99.90
16263;DHT22;8239;48.594;8.598;2023-05-07T14:00:14;14.50;99.90
16263;DHT22;8239;48.594;8.598;2023-05-07T14:02:42;14.60;99.90
16263;DHT22;8239;48.594;8.598;2023-05-07T14:05:09;14.70;99.90
16263;DHT22;8239;48.594;8.598;2023-05-07T14:07:36;14.80;99.90
16263;DHT22;8239;48.594;8.598;2023-05-07T14:10:06;14.90;99.90
16263;DHT22;8239;48.594;8.598;2023-05-07T14:12:33;15.00;99.90
16263;DHT22;8239;48.594;8.598;2023-05-07T14:15:01;15.20;99.90
16263;DHT22;8239;48.594;8.598;2023-05-07T14:17:28;15.30;99.90
16263;DHT22;8239;48.594;8.598;2023-05-07T14:19:55;15.50;99.90
16263;DHT22;8239;48.594;8.598;2023-05-07T14:22:23;15.60;99.90
16263;DHT22;8239;48.594;8.598;2023-05-07T14:24:50;15.80;99.90
16263;DHT22;8239;48.594;8.598;2023-05-07T14:27:18;16.00;99.90
16263;DHT22;8239;48.594;8.598;2023-05-07T14:29:45;16.10;99.90
16263;DHT22;8239;48.594;8.598;2023-05-07T14:32:16;16.30;99.90
16263;DHT22;8239;48.594;8.598;2023-05-07T14:34:43;16.50;99.90
16263;DHT22;8239;48.594;8.598;2023-05-07T14:37:11;16.70;99.90
16263;DHT22;8239;48.594;8.598;2023-05-07T14:39:38;16.90;99.90
16263;DHT22;8239;48.594;8.598;2023-05-07T14:42:05;17.10;99.90
16263;DHT22;8239;48.594;8.598;2023-05-07T14:44:34;17.20;99.90
16263;DHT22;8239;48.594;8.598;2023-05-07T14:47:01;17.40;99.90
16263;DHT22;8239;48.594;8.598;2023-05-07T14:49:28;17.70;99.90
16263;DHT22;8239;48.594;8.598;2023-05-07T14:51:57;17.90;99.90
16263;DHT22;8239;48.594;8.598;2023-05-07T14:54:24;18.10;99.90
16263;DHT22;8239;48.594;8.598;2023-05-07T14:56:52;18.40;99.90
16263;DHT22;8239;48.594;8.598;2023-05-07T14:59:19;18.60;99.90
16263;DHT22;8239;48.594;8.598;2023-05-07T15:01:49;18.80;99.90
16263;DHT22;8239;48.594;8.598;2023-05-07T15:04:16;19.10;99.90
16263;DHT22;8239;48.594;8.598;2023-05-07T15:06:43;19.30;99.90
16263;DHT22;8239;48.594;8.598;2023-05-07T15:09:10;19.70;99.90
16263;DHT22;8239;48.594;8.598;2023-05-07T15:11:37;19.80;99.90
16263;DHT22;8239;48.594;8.598;2023-05-07T15:14:04;19.90;99.90
16263;DHT22;8239;48.594;8.598;2023-05-07T15:16:31;19.80;99.90
16263;DHT22;8239;48.594;8.598;2023-05-07T15:19:01;19.70;99.90
16263;DHT22;8239;48.594;8.598;2023-05-07T15:21:28;19.50;99.90
16263;DHT22;8239;48.594;8.598;2023-05-07T15:23:56;19.40;99.90
16263;DHT22;8239;48.594;8.598;2023-05-07T15:26:23;19.30;99.90
16263;DHT22;8239;48.594;8.598;2023-05-07T15:28:51;19.20;99.90
16263;DHT22;8239;48.594;8.598;2023-05-07T15:31:18;19.00;99.90
16263;DHT22;8239;48.594;8.598;2023-05-07T15:33:45;18.90;99.90
16263;DHT22;8239;48.594;8.598;2023-05-07T15:36:14;18.80;99.90
16263;DHT22;8239;48.594;8.598;2023-05-07T15:38:41;18.90;99.90
16263;DHT22;8239;48.594;8.598;2023-05-07T15:41:09;19.00;99.90
16263;DHT22;8239;48.594;8.598;2023-05-07T15:43:43;19.20;99.90
16263;DHT22;8239;48.594;8.598;2023-05-07T15:46:11;19.40;99.90
16263;DHT22;8239;48.594;8.598;2023-05-07T15:48:38;19.50;99.90
16263;DHT22;8239;48.594;8.598;2023-05-07T15:51:05;19.70;99.90
16263;DHT22;8239;48.594;8.598;2023-05-07T15:53:35;19.80;99.90
16263;DHT22;8239;48.594;8.598;2023-05-07T15:56:03;19.90;99.90
16263;DHT22;8239;48.594;8.598;2023-05-07T15:58:30;20.00;99.90
16263;DHT22;8239;48.594;8.598;2023-05-07T16:00:57;20.20;99.90
16263;DHT22;8239;48.594;8.598;2023-05-07T16:03:24;20.30;99.90
16263;DHT22;8239;48.594;8.598;2023-05-07T16:05:51;20.30;99.90